Airfield :
LOGIN :

Register | Disclaimer

   EN    FR    IT 

 










Legend :    VFR   Marginal VFR   IFR   Intensive IFR   Very Intensive IFR
Visi :
Ceiling :
>= 8 km
>= 3000ft
5 to 8 km
1000 to 3000 ft
1500m to 5 km
500 to 1000 ft
800 to 1500m
200 to 500 ft
< 800m
< 200 ft
Symbols :   Thunderstorms  Fog  Heavy snow  Heavy precipitations  Wind > 20 kt
SIGMETs :     Misc.  Thunderstorms  Icing  Turbulence  Mountain Waves  Volcanic Ashes







- Airport Elevation : 39 ft
- IATA code : TRS


LIPQ - Friuli Venezia Giulia Apt. Trieste

CURRENT METAR :
  • 291050Z VRB04KT 9999 FEW035 17/02 Q1016

EXPIRED METARs :
  • 291020Z 36004KT 300V070 CAVOK 17/01 Q1016
  • 290950Z 08006KT 040V130 CAVOK 16/00 Q1016
  • 290920Z 08007KT 040V130 CAVOK 16/03 Q1016
  • 290850Z 07008KT 030V110 CAVOK 15/M00 Q1016
  • 290820Z 08006KT 040V120 CAVOK 16/03 Q1016

TAF TAF LIPQ
Valid from the 29 at 06:00 until the 30 at 06:00 UTC


290500Z 2906/3006 06010KT 9999 SCT020
BECMG 2908/2910 VRB05KT
BECMG 2920/2922 06010KT
No reported NOTAMs for that airfield.
1 SIGMET reported for the Milano FIR (LIMM) :
 
Severe turbulence
LIMM SIGMET 3 VALID 290830/291230 LIMM- LIMM MILANO FIR SEV TURB FCST E OF LINE N4656 E01234 - N4325 E01133 FL240/380 MOV E WKN=



MET'MAP, your aeronautical weather chart ! - Copyright ORBIFLY December 2007 - Disclaimer

ORBIFLY MET'MAP TEAM :

Programming & Development : Alexandra Zaïnal
Concept & Development : Baudouin d'Aumeries
Co-Development & Prog : Marc-Olivier Méhu
Technical & hardware support : Manuel Goepfert

Contact : metmap@orbifly.com




SOURCES & CREDITS :

   NOAA